Llano, California
Current Conditions -  °F | °C
As of 10:55 PM on Friday 28 Nov 2014 (Local Time) from KGXA Reporting Station
Clear Clear  
Wind Chill: 45°   Ceiling: Unl
Heat Index: 47°   Visibility: 10mi
Dew Point:   Wind: 6mph
Humidity: 19%   Direction: 150°SSE
Pressure: 29.95"   Gusts: NA
Location:  34.5°N, 117.79°W
Report Text: KGXA 290655Z AUTO 15005KT 10SM CLR 09/M14 A2995 RMK AO2 SLP133 T00851142 PWINO TSNO $
Loading
Personal Weather Stations






























Interactive Weather Map New forecast layout! Learn more

10-Day Weather Forecast

Advertisements
Track Severe Weather on mobile